createdAt,value
2022-12-16T00:01:53.822Z,80.93
2022-12-16T00:04:27.384Z,70.60
2022-12-16T00:06:55.192Z,74.40
2022-12-16T00:09:23.024Z,60.90
2022-12-16T00:11:49.685Z,78.32
2022-12-16T00:14:22.184Z,208.13
2022-12-16T00:16:49.119Z,99.20
2022-12-16T00:19:16.148Z,75.75
2022-12-16T00:21:42.839Z,76.68
2022-12-16T00:24:15.262Z,76.05
2022-12-16T00:26:45.172Z,69.30
2022-12-16T00:31:48.067Z,82.47
2022-12-16T00:34:18.297Z,67.45
2022-12-16T00:36:53.335Z,82.88
2022-12-16T00:39:30.173Z,72.85
2022-12-16T00:41:58.079Z,70.82
2022-12-16T00:44:25.944Z,74.72
2022-12-16T00:46:54.599Z,73.63
2022-12-16T00:49:40.139Z,64.20
2022-12-16T00:52:07.131Z,60.00
2022-12-16T00:54:35.010Z,72.60
2022-12-16T00:57:03.730Z,70.65
2022-12-16T00:59:48.871Z,56.88
2022-12-16T01:02:18.877Z,114.82
2022-12-16T01:04:53.722Z,75.47
2022-12-16T01:07:22.893Z,54.30
2022-12-16T01:09:57.834Z,57.63
2022-12-16T01:12:35.479Z,51.42
2022-12-16T01:15:18.977Z,51.15
2022-12-16T01:17:53.029Z,59.28
2022-12-16T01:20:29.046Z,54.33
2022-12-16T01:22:58.993Z,57.05
2022-12-16T01:25:32.999Z,54.92
2022-12-16T01:28:18.542Z,64.18
2022-12-16T01:30:46.335Z,58.10
2022-12-16T01:33:33.713Z,87.43
2022-12-16T01:36:15.232Z,64.40
2022-12-16T01:38:44.546Z,68.18
2022-12-16T01:41:34.379Z,70.03
2022-12-16T01:47:00.397Z,71.05
2022-12-16T01:49:52.942Z,54.92
2022-12-16T01:52:26.799Z,68.97
2022-12-16T01:55:09.422Z,53.30
2022-12-16T01:57:51.486Z,64.82
2022-12-16T02:00:24.052Z,71.40
2022-12-16T02:02:58.244Z,66.10
2022-12-16T02:05:27.400Z,57.97
2022-12-16T02:08:10.891Z,54.90
2022-12-16T02:15:27.538Z,55.08
2022-12-16T02:18:33.345Z,59.15
2022-12-16T02:21:13.526Z,55.80
2022-12-16T02:24:03.715Z,48.55
2022-12-16T02:26:53.322Z,54.08
2022-12-16T02:29:56.307Z,55.42
2022-12-16T02:32:29.523Z,81.22
2022-12-16T02:35:26.442Z,57.00
2022-12-16T02:38:17.984Z,62.30
2022-12-16T02:41:02.304Z,78.78
2022-12-16T02:43:45.609Z,65.65
2022-12-16T02:46:31.904Z,59.53
2022-12-16T02:49:12.931Z,64.70
2022-12-16T02:51:43.124Z,61.15
2022-12-16T02:54:13.180Z,66.95
2022-12-16T02:57:06.279Z,69.60
2022-12-16T02:59:59.871Z,68.82
2022-12-16T03:03:05.785Z,64.45
2022-12-16T03:05:48.594Z,65.18
2022-12-16T03:08:36.802Z,69.57
2022-12-16T03:11:10.320Z,59.45
2022-12-16T03:13:49.942Z,56.72
2022-12-16T03:16:20.531Z,74.15
2022-12-16T03:18:52.707Z,63.97
2022-12-16T03:21:34.081Z,83.35
2022-12-16T03:24:29.146Z,61.33
2022-12-16T03:27:16.554Z,67.55
2022-12-16T03:30:19.728Z,71.93
2022-12-16T03:33:18.636Z,61.38
2022-12-16T03:35:59.436Z,57.13
2022-12-16T03:38:38.955Z,70.95
2022-12-16T03:41:07.655Z,59.63
2022-12-16T03:43:50.609Z,62.92
2022-12-16T03:46:39.609Z,62.45
2022-12-16T03:49:14.431Z,58.03
2022-12-16T03:51:56.691Z,59.63
2022-12-16T03:54:24.283Z,56.60
2022-12-16T03:56:52.449Z,52.03
2022-12-16T03:59:25.891Z,61.40
2022-12-16T04:02:14.878Z,75.75
2022-12-16T04:04:51.136Z,74.25
2022-12-16T04:07:22.011Z,52.33
2022-12-16T04:09:50.299Z,68.65
2022-12-16T04:12:39.289Z,64.70
2022-12-16T04:15:40.725Z,61.17
2022-12-16T04:18:35.480Z,52.63
2022-12-16T04:21:30.117Z,54.65
2022-12-16T04:24:20.707Z,50.58
2022-12-16T04:27:24.618Z,59.45
2022-12-16T04:30:15.835Z,53.78
2022-12-16T04:33:01.447Z,59.75
2022-12-16T04:36:24.732Z,63.25
2022-12-16T04:39:16.476Z,63.78
2022-12-16T04:42:13.290Z,63.88
2022-12-16T04:45:05.408Z,57.65
2022-12-16T04:47:57.062Z,83.32
2022-12-16T04:51:14.148Z,67.05
2022-12-16T04:53:59.640Z,50.45
2022-12-16T04:56:44.993Z,54.45
2022-12-16T04:59:39.820Z,67.40
2022-12-16T05:03:05.422Z,56.95
2022-12-16T05:05:56.628Z,65.82
2022-12-16T05:08:54.472Z,68.15
2022-12-16T05:11:40.399Z,69.57
2022-12-16T05:14:28.044Z,61.00
2022-12-16T05:17:13.586Z,62.95
2022-12-16T05:19:59.308Z,56.03
2022-12-16T05:23:17.086Z,62.92
2022-12-16T05:26:02.528Z,60.47
2022-12-16T05:32:36.134Z,58.17
2022-12-16T05:35:21.744Z,54.42
2022-12-16T05:38:14.088Z,58.78
2022-12-16T05:41:27.664Z,51.10
2022-12-16T05:44:14.136Z,67.63
2022-12-16T05:47:05.227Z,83.88
2022-12-16T05:49:58.148Z,58.17
2022-12-16T05:52:49.787Z,76.00
2022-12-16T05:55:37.424Z,74.22
2022-12-16T05:58:24.134Z,89.07
2022-12-16T06:01:15.171Z,100.05
2022-12-16T06:04:06.374Z,109.03
2022-12-16T06:06:53.058Z,114.63
2022-12-16T06:09:50.557Z,148.35
2022-12-16T06:12:49.656Z,152.13
2022-12-16T06:15:35.299Z,144.85
2022-12-16T06:18:46.707Z,111.07
2022-12-16T06:21:56.101Z,119.47
2022-12-16T06:24:57.180Z,138.95
2022-12-16T06:27:53.390Z,107.03
2022-12-16T06:30:57.468Z,128.27
2022-12-16T06:34:09.064Z,117.68
2022-12-16T06:37:25.676Z,202.48
2022-12-16T06:40:16.824Z,143.27
2022-12-16T06:43:16.273Z,148.82
2022-12-16T06:46:11.301Z,159.95
2022-12-16T06:49:41.743Z,159.95
2022-12-16T06:52:56.179Z,188.90
2022-12-16T06:55:41.746Z,207.07
2022-12-16T06:58:29.191Z,238.98
2022-12-16T07:01:14.722Z,318.77
2022-12-16T07:03:59.967Z,359.42
2022-12-16T07:06:45.458Z,263.35
2022-12-16T07:09:32.022Z,298.75
2022-12-16T07:12:17.359Z,189.90
2022-12-16T07:15:02.808Z,272.33
2022-12-16T07:17:48.170Z,302.40
2022-12-16T07:20:33.649Z,212.88
2022-12-16T07:23:19.995Z,214.80
2022-12-16T07:26:05.481Z,214.35
2022-12-16T07:28:50.959Z,352.02
2022-12-16T07:31:36.476Z,232.13
2022-12-16T07:34:21.852Z,305.65
2022-12-16T07:37:07.354Z,288.50
2022-12-16T07:39:55.201Z,215.20
2022-12-16T07:42:41.455Z,183.23
2022-12-16T07:45:27.987Z,170.18
2022-12-16T07:48:13.575Z,187.82
2022-12-16T07:50:59.506Z,266.23
2022-12-16T07:53:45.528Z,275.75
2022-12-16T07:56:31.012Z,224.07
2022-12-16T07:59:16.643Z,220.93
2022-12-16T08:02:02.053Z,273.67
2022-12-16T08:04:47.382Z,299.95
2022-12-16T08:07:32.935Z,254.90
2022-12-16T08:10:18.288Z,251.68
2022-12-16T08:13:03.771Z,260.17
2022-12-16T08:15:49.419Z,259.42
2022-12-16T08:18:35.180Z,243.93
2022-12-16T08:21:20.641Z,159.63
2022-12-16T08:24:05.982Z,212.35
2022-12-16T08:26:59.017Z,128.77
2022-12-16T08:29:45.378Z,210.60
2022-12-16T08:32:32.356Z,164.45
2022-12-16T08:35:18.028Z,187.05
2022-12-16T08:38:07.578Z,152.18
2022-12-16T08:40:57.814Z,96.50
2022-12-16T08:43:43.477Z,81.45
2022-12-16T08:46:30.911Z,72.07
2022-12-16T08:52:06.999Z,57.92
2022-12-16T08:54:53.524Z,63.95
2022-12-16T08:57:39.503Z,60.33
2022-12-16T09:00:25.901Z,59.72
2022-12-16T09:03:13.977Z,56.60
2022-12-16T09:05:59.872Z,55.88
2022-12-16T09:08:45.493Z,50.03
2022-12-16T09:11:31.366Z,62.65
2022-12-16T09:14:16.911Z,51.38
2022-12-16T09:17:02.293Z,71.75
2022-12-16T09:19:48.059Z,70.13
2022-12-16T09:22:33.712Z,57.92
2022-12-16T09:25:20.260Z,56.63
2022-12-16T09:28:08.715Z,70.38
2022-12-16T09:30:54.020Z,70.13
2022-12-16T09:33:41.151Z,59.97
2022-12-16T09:36:26.660Z,70.78
2022-12-16T09:39:12.253Z,73.00
2022-12-16T09:42:03.536Z,59.28
2022-12-16T09:45:16.609Z,55.65
2022-12-16T09:48:42.921Z,58.30
2022-12-16T09:51:30.033Z,52.08
2022-12-16T09:54:18.542Z,51.88
2022-12-16T09:57:04.844Z,58.15
2022-12-16T09:59:55.595Z,48.35
2022-12-16T10:02:43.359Z,61.88
2022-12-16T10:05:31.937Z,64.25
2022-12-16T10:08:37.037Z,56.17
2022-12-16T10:11:39.125Z,56.47
2022-12-16T10:14:39.775Z,55.50
2022-12-16T10:17:36.665Z,56.30
2022-12-16T10:21:00.296Z,45.30
2022-12-16T10:23:56.367Z,65.22
2022-12-16T10:27:09.827Z,64.30
2022-12-16T10:30:00.421Z,73.18
2022-12-16T10:33:00.027Z,84.50
2022-12-16T10:35:47.443Z,76.45
2022-12-16T10:39:14.321Z,83.80
2022-12-16T10:42:03.732Z,78.47
2022-12-16T10:45:14.177Z,72.95
2022-12-16T10:47:59.395Z,80.90
2022-12-16T10:50:44.947Z,69.22
2022-12-16T10:53:34.168Z,67.65
2022-12-16T10:56:40.683Z,75.32
2022-12-16T10:59:27.349Z,70.97
2022-12-16T11:02:18.456Z,66.57
2022-12-16T11:05:04.972Z,68.63
2022-12-16T11:07:58.576Z,82.40
2022-12-16T11:11:03.247Z,70.07
2022-12-16T11:13:55.820Z,69.35
2022-12-16T11:16:46.689Z,54.30
2022-12-16T11:19:42.758Z,60.55
2022-12-16T11:22:42.167Z,66.90
2022-12-16T11:25:34.347Z,68.95
2022-12-16T11:28:33.201Z,60.80
2022-12-16T11:31:24.733Z,67.05
2022-12-16T11:34:12.299Z,63.63
2022-12-16T11:37:00.387Z,62.85
2022-12-16T11:39:48.022Z,55.33
2022-12-16T11:42:44.158Z,57.10
2022-12-16T11:45:38.759Z,63.33
2022-12-16T11:48:46.934Z,50.47
2022-12-16T11:51:34.612Z,57.80
2022-12-16T11:54:35.813Z,55.70
2022-12-16T11:57:25.644Z,63.05
2022-12-16T12:03:23.203Z,63.30
2022-12-16T12:06:36.091Z,56.08
2022-12-16T12:09:35.960Z,54.78
2022-12-16T12:16:15.707Z,60.65
2022-12-16T12:19:17.172Z,55.95
2022-12-16T12:22:11.705Z,55.92
2022-12-16T12:25:21.109Z,57.58
2022-12-16T12:28:10.654Z,65.35
2022-12-16T12:31:11.238Z,64.28
2022-12-16T12:34:11.909Z,60.42
2022-12-16T12:37:44.393Z,72.85
2022-12-16T12:40:35.909Z,53.22
2022-12-16T12:43:29.320Z,68.43
2022-12-16T12:46:29.393Z,66.80
2022-12-16T12:49:21.550Z,58.42
2022-12-16T12:52:20.039Z,62.03
2022-12-16T12:55:19.754Z,56.60
2022-12-16T12:58:07.718Z,64.70
2022-12-16T13:01:00.758Z,65.20
2022-12-16T13:03:58.373Z,64.90
2022-12-16T13:06:46.312Z,62.60
2022-12-16T13:10:03.952Z,63.83
2022-12-16T13:12:51.290Z,59.40
2022-12-16T13:15:55.291Z,64.55
2022-12-16T13:18:46.143Z,60.17
2022-12-16T13:21:57.157Z,48.95
2022-12-16T13:24:45.965Z,51.17
2022-12-16T13:27:35.627Z,49.08
2022-12-16T13:30:39.773Z,61.85
2022-12-16T13:33:40.095Z,51.10
2022-12-16T13:36:26.479Z,57.10
2022-12-16T13:39:15.029Z,51.63
2022-12-16T13:42:00.794Z,59.08
2022-12-16T13:45:01.599Z,63.50
2022-12-16T13:47:58.865Z,60.13
2022-12-16T13:51:04.786Z,47.10
2022-12-16T13:53:55.268Z,54.17
2022-12-16T13:57:05.083Z,52.78
2022-12-16T14:02:54.503Z,53.05
2022-12-16T14:05:55.895Z,69.38
2022-12-16T14:08:44.044Z,75.28
2022-12-16T14:11:40.099Z,142.63
2022-12-16T14:14:41.020Z,126.03
2022-12-16T14:17:56.760Z,131.82
2022-12-16T14:20:58.544Z,80.63
2022-12-16T14:23:59.476Z,145.95
2022-12-16T14:26:45.917Z,122.20
2022-12-16T14:29:36.153Z,238.55
2022-12-16T14:32:54.958Z,108.50
2022-12-16T14:35:43.478Z,197.77
2022-12-16T14:38:42.223Z,106.80
2022-12-16T14:41:43.832Z,131.95
2022-12-16T14:44:47.028Z,107.38
2022-12-16T14:47:40.858Z,110.13
2022-12-16T14:50:47.241Z,118.10
2022-12-16T14:53:42.305Z,160.48
2022-12-16T14:56:34.692Z,192.18
2022-12-16T14:59:36.980Z,109.20
2022-12-16T15:02:49.655Z,127.97
2022-12-16T15:05:35.913Z,115.88
2022-12-16T15:08:21.523Z,130.07
2022-12-16T15:11:07.042Z,134.77
2022-12-16T15:13:57.779Z,139.05
2022-12-16T15:16:52.468Z,137.90
2022-12-16T15:19:41.302Z,140.48
2022-12-16T15:22:34.203Z,116.28
2022-12-16T15:25:20.179Z,124.70
2022-12-16T15:28:15.266Z,172.52
2022-12-16T15:31:02.874Z,98.13
2022-12-16T15:33:52.000Z,122.80
2022-12-16T15:36:52.728Z,95.82
2022-12-16T15:39:49.947Z,121.65
2022-12-16T15:42:46.636Z,132.57
2022-12-16T15:45:45.605Z,77.20
2022-12-16T15:48:41.568Z,67.73
2022-12-16T15:51:59.745Z,78.38
2022-12-16T15:54:45.256Z,92.20
2022-12-16T15:57:47.621Z,139.20
2022-12-16T16:00:44.566Z,112.18
2022-12-16T16:03:39.587Z,114.15
2022-12-16T16:06:33.184Z,115.70
2022-12-16T16:09:20.173Z,148.85
2022-12-16T16:12:05.559Z,183.02
2022-12-16T16:14:51.128Z,161.65
2022-12-16T16:17:40.478Z,279.23
2022-12-16T16:20:31.483Z,228.93
2022-12-16T16:23:17.392Z,198.07
2022-12-16T16:26:04.143Z,202.30
2022-12-16T16:28:50.043Z,172.07
2022-12-16T16:31:35.571Z,147.57
2022-12-16T16:34:21.128Z,93.32
2022-12-16T16:37:12.831Z,151.52
2022-12-16T16:39:58.876Z,111.18
2022-12-16T16:42:44.244Z,95.90
2022-12-16T16:45:29.961Z,111.13
2022-12-16T16:48:28.904Z,100.90
2022-12-16T16:51:16.333Z,65.63
2022-12-16T16:54:06.269Z,119.45
2022-12-16T16:56:53.655Z,117.38
2022-12-16T16:59:43.076Z,104.65
2022-12-16T17:02:41.417Z,88.00
2022-12-16T17:05:31.216Z,104.10
2022-12-16T17:08:16.697Z,168.40
2022-12-16T17:11:04.049Z,62.95
2022-12-16T17:13:49.276Z,86.25
2022-12-16T17:16:34.785Z,77.53
2022-12-16T17:19:21.568Z,74.00
2022-12-16T17:22:07.105Z,97.72
2022-12-16T17:24:54.292Z,92.85
2022-12-16T17:27:43.142Z,79.80
2022-12-16T17:30:39.735Z,85.18
2022-12-16T17:33:28.816Z,102.80
2022-12-16T17:36:14.208Z,153.57
2022-12-16T17:39:01.490Z,164.18
2022-12-16T17:41:48.810Z,135.30
2022-12-16T17:44:34.949Z,370.95
2022-12-16T17:47:20.715Z,125.75
2022-12-16T17:50:06.270Z,100.95
2022-12-16T17:52:52.814Z,80.72
2022-12-16T17:55:38.122Z,78.65
2022-12-16T17:58:23.536Z,77.20
2022-12-16T18:01:09.106Z,58.70
2022-12-16T18:03:54.656Z,58.85
2022-12-16T18:06:40.436Z,72.93
2022-12-16T18:09:25.976Z,86.80
2022-12-16T18:12:11.678Z,105.15
2022-12-16T18:14:57.032Z,107.18
2022-12-16T18:17:42.504Z,88.40
2022-12-16T18:20:28.359Z,97.82
2022-12-16T18:23:13.831Z,90.18
2022-12-16T18:25:59.184Z,109.63
2022-12-16T18:28:45.048Z,165.48
2022-12-16T18:31:30.670Z,148.88
2022-12-16T18:34:16.333Z,132.65
2022-12-16T18:37:21.632Z,96.78
2022-12-16T18:40:06.864Z,92.80
2022-12-16T18:42:51.967Z,103.57
2022-12-16T18:45:37.442Z,67.70
2022-12-16T18:48:23.381Z,76.78
2022-12-16T18:51:16.925Z,96.53
2022-12-16T18:54:02.339Z,80.70
2022-12-16T18:56:48.299Z,92.13
2022-12-16T18:59:34.476Z,65.55
2022-12-16T19:02:20.008Z,55.80
2022-12-16T19:05:05.655Z,52.20
2022-12-16T19:07:51.040Z,53.08
2022-12-16T19:10:36.604Z,59.05
2022-12-16T19:13:21.907Z,62.35
2022-12-16T19:16:16.722Z,44.78
2022-12-16T19:19:02.283Z,50.38
2022-12-16T19:21:52.365Z,55.90
2022-12-16T19:24:43.478Z,53.65
2022-12-16T19:27:29.130Z,47.97
2022-12-16T19:30:14.562Z,56.08
2022-12-16T19:33:01.069Z,51.45
2022-12-16T19:35:46.558Z,48.00
2022-12-16T19:38:32.897Z,51.60
2022-12-16T19:41:18.420Z,55.13
2022-12-16T19:44:06.489Z,58.92
2022-12-16T19:46:53.352Z,48.65
2022-12-16T19:49:44.383Z,47.42
2022-12-16T19:52:30.673Z,48.03
2022-12-16T19:58:21.694Z,48.00
2022-12-16T20:01:07.319Z,43.95
2022-12-16T20:03:55.223Z,53.63
2022-12-16T20:06:42.359Z,49.97
2022-12-16T20:09:28.106Z,53.80
2022-12-16T20:12:13.575Z,55.25
2022-12-16T20:14:59.096Z,61.30
2022-12-16T20:17:44.577Z,66.82
2022-12-16T20:20:29.967Z,59.22
2022-12-16T20:23:15.893Z,56.88
2022-12-16T20:26:01.728Z,56.17
2022-12-16T20:28:47.188Z,58.63
2022-12-16T20:31:43.896Z,58.63
2022-12-16T20:34:29.284Z,50.33
2022-12-16T20:37:15.044Z,57.95
2022-12-16T20:40:00.495Z,51.90
2022-12-16T20:42:46.507Z,68.05
2022-12-16T20:45:31.952Z,72.68
2022-12-16T20:48:17.330Z,66.10
2022-12-16T20:51:02.803Z,110.47
2022-12-16T20:53:48.198Z,107.28
2022-12-16T20:56:33.667Z,194.82
2022-12-16T20:59:19.026Z,225.95
2022-12-16T21:05:09.706Z,92.45
2022-12-16T21:07:55.084Z,58.55
2022-12-16T21:10:42.053Z,52.22
2022-12-16T21:13:29.623Z,50.95
2022-12-16T21:16:19.240Z,45.38
2022-12-16T21:19:05.598Z,54.80
2022-12-16T21:21:51.189Z,49.72
2022-12-16T21:24:37.280Z,52.22
2022-12-16T21:27:23.175Z,46.35
2022-12-16T21:30:08.654Z,46.30
2022-12-16T21:32:54.961Z,50.58
2022-12-16T21:35:42.484Z,47.15
2022-12-16T21:38:29.517Z,51.88
2022-12-16T21:41:15.271Z,45.60
2022-12-16T21:44:00.921Z,42.78
2022-12-16T21:46:46.203Z,39.65
2022-12-16T21:49:31.684Z,57.90
2022-12-16T21:52:17.290Z,50.20
2022-12-16T21:55:02.546Z,52.40
2022-12-16T21:57:48.074Z,55.17
2022-12-16T22:00:34.084Z,58.05
2022-12-16T22:03:19.563Z,55.22
2022-12-16T22:06:05.125Z,51.50
2022-12-16T22:08:51.740Z,52.85
2022-12-16T22:11:37.157Z,55.65
2022-12-16T22:14:23.055Z,79.30
2022-12-16T22:17:08.483Z,66.45
2022-12-16T22:19:56.140Z,50.58
2022-12-16T22:22:42.474Z,46.47
2022-12-16T22:25:28.911Z,54.03
2022-12-16T22:28:14.593Z,43.83
2022-12-16T22:30:59.767Z,49.67
2022-12-16T22:33:45.087Z,44.15
2022-12-16T22:36:32.685Z,42.63
2022-12-16T22:39:18.007Z,43.65
2022-12-16T22:42:03.424Z,48.53
2022-12-16T22:44:49.079Z,41.85
2022-12-16T22:47:34.586Z,49.40
2022-12-16T22:50:20.161Z,58.60
2022-12-16T22:53:05.454Z,44.25
2022-12-16T22:55:50.975Z,41.50
2022-12-16T22:58:37.761Z,47.70
2022-12-16T23:01:26.606Z,52.83
2022-12-16T23:04:11.953Z,49.63
2022-12-16T23:06:57.553Z,65.97
2022-12-16T23:09:53.505Z,60.53
2022-12-16T23:12:39.489Z,45.75
2022-12-16T23:15:36.398Z,51.85
2022-12-16T23:18:21.597Z,45.53
2022-12-16T23:21:09.649Z,48.67
2022-12-16T23:27:10.431Z,46.22
2022-12-16T23:32:30.237Z,50.85
2022-12-16T23:32:30.682Z,54.72
2022-12-16T23:33:00.903Z,40.80
2022-12-16T23:35:46.265Z,42.65
2022-12-16T23:38:31.884Z,45.55
2022-12-16T23:41:18.308Z,40.65
2022-12-16T23:44:04.014Z,37.67
2022-12-16T23:46:49.720Z,37.85
2022-12-16T23:49:35.186Z,44.60
2022-12-16T23:52:40.586Z,47.33
2022-12-16T23:55:26.072Z,47.50
2022-12-16T23:58:18.757Z,54.58
